createdAt,value
2019-03-03T00:04:01.334Z,6.5
2019-03-03T00:19:01.398Z,6.5
2019-03-03T00:24:01.256Z,6.4
2019-03-03T00:39:01.379Z,6.5
2019-03-03T00:54:01.410Z,6.6
2019-03-03T01:04:01.392Z,6.7
2019-03-03T01:14:01.369Z,6.8
2019-03-03T01:29:01.320Z,6.9
2019-03-03T01:39:01.392Z,7.0
2019-03-03T01:49:01.387Z,7.1
2019-03-03T01:59:01.330Z,7.2
2019-03-03T02:04:01.263Z,7.3
2019-03-03T02:09:01.269Z,7.4
2019-03-03T02:14:01.338Z,7.5
2019-03-03T02:19:01.255Z,7.6
2019-03-03T02:29:01.327Z,7.7
2019-03-03T02:34:01.260Z,7.8
2019-03-03T02:39:01.333Z,7.9
2019-03-03T02:49:01.411Z,8.0
2019-03-03T02:59:01.334Z,8.1
2019-03-03T03:14:01.417Z,8.1
2019-03-03T03:29:01.402Z,8.1
2019-03-03T03:39:01.326Z,8.0
2019-03-03T03:54:01.412Z,7.9
2019-03-03T04:09:01.951Z,7.9
2019-03-03T04:24:01.361Z,7.9
2019-03-03T04:29:01.276Z,7.8
2019-03-03T04:45:01.384Z,7.8
2019-03-03T05:00:01.401Z,7.8
2019-03-03T05:15:01.359Z,7.8
2019-03-03T05:30:01.346Z,7.8
2019-03-03T05:45:01.270Z,7.9
2019-03-03T06:00:01.300Z,7.9
2019-03-03T06:15:01.264Z,7.9
2019-03-03T06:20:01.271Z,8.0
2019-03-03T06:36:01.258Z,8.0
2019-03-03T06:51:01.258Z,8.0
2019-03-03T07:06:01.266Z,7.9
2019-03-03T07:21:01.304Z,7.9
2019-03-03T07:31:01.308Z,8.0
2019-03-03T07:46:01.283Z,8.0
2019-03-03T08:01:01.262Z,8.0
2019-03-03T08:16:01.109Z,8.0
2019-03-03T08:31:01.119Z,8.0
2019-03-03T08:36:01.339Z,8.1
2019-03-03T08:51:01.267Z,8.1
2019-03-03T09:01:01.123Z,8.2
2019-03-03T09:11:02.136Z,8.1
2019-03-03T09:16:01.309Z,8.2
2019-03-03T09:21:01.281Z,8.3
2019-03-03T09:27:01.404Z,8.4
2019-03-03T09:37:01.535Z,8.6
2019-03-03T09:52:01.287Z,8.6
2019-03-03T10:02:01.128Z,8.5
2019-03-03T10:17:01.178Z,8.6
2019-03-03T10:22:01.306Z,8.8
2019-03-03T10:27:01.399Z,9.0
2019-03-03T10:32:01.261Z,9.1
2019-03-03T10:37:01.414Z,9.3
2019-03-03T10:52:01.275Z,9.3
2019-03-03T11:02:01.128Z,9.4
2019-03-03T11:07:01.451Z,9.5
2019-03-03T11:17:01.118Z,9.6
2019-03-03T11:32:01.117Z,9.6
2019-03-03T11:37:01.334Z,9.5
2019-03-03T11:52:01.270Z,9.4
2019-03-03T12:07:01.323Z,9.4
2019-03-03T12:12:01.255Z,9.5
2019-03-03T12:22:01.256Z,9.6
2019-03-03T12:37:01.323Z,9.5
2019-03-03T12:42:01.327Z,9.4
2019-03-03T12:47:01.261Z,9.3
2019-03-03T12:52:01.260Z,9.2
2019-03-03T13:07:01.381Z,9.2
2019-03-03T13:22:01.258Z,9.3
2019-03-03T13:37:01.441Z,9.3
2019-03-03T13:52:01.272Z,9.2
2019-03-03T13:57:01.392Z,9.1
2019-03-03T14:07:01.360Z,9.0
2019-03-03T14:23:01.262Z,9.0
2019-03-03T14:38:01.267Z,9.0
2019-03-03T14:43:01.273Z,8.9
2019-03-03T14:48:01.273Z,8.8
2019-03-03T14:53:01.276Z,8.7
2019-03-03T14:58:01.261Z,8.6
2019-03-03T15:03:01.268Z,8.5
2019-03-03T15:18:01.261Z,8.5
2019-03-03T15:28:01.254Z,8.4
2019-03-03T15:44:01.253Z,8.3
2019-03-03T15:49:01.249Z,8.2
2019-03-03T16:04:01.270Z,8.1
2019-03-03T16:09:01.254Z,8.0
2019-03-03T16:19:01.265Z,7.9
2019-03-03T16:29:01.260Z,7.8
2019-03-03T16:44:01.272Z,7.7
2019-03-03T16:59:01.259Z,7.7
2019-03-03T17:14:01.273Z,7.7
2019-03-03T17:29:01.249Z,7.6
2019-03-03T17:44:01.265Z,7.7
2019-03-03T17:59:01.259Z,7.7
2019-03-03T18:14:01.283Z,7.7
2019-03-03T18:19:01.285Z,7.8
2019-03-03T18:34:01.439Z,7.8
2019-03-03T18:44:01.254Z,7.7
2019-03-03T18:59:01.454Z,7.7
2019-03-03T19:14:01.351Z,7.7
2019-03-03T19:24:01.330Z,7.8
2019-03-03T19:39:01.337Z,7.8
2019-03-03T19:54:01.391Z,7.8
2019-03-03T19:59:01.258Z,7.9
2019-03-03T20:14:01.447Z,8.0
2019-03-03T20:19:02.142Z,8.1
2019-03-03T20:24:01.381Z,8.2
2019-03-03T20:29:01.257Z,8.4
2019-03-03T20:34:01.267Z,8.6
2019-03-03T20:39:01.254Z,8.8
2019-03-03T20:44:01.264Z,9.0
2019-03-03T20:49:01.266Z,9.2
2019-03-03T20:59:01.407Z,9.3
2019-03-03T21:14:03.607Z,9.3
2019-03-03T21:19:01.518Z,9.2
2019-03-03T21:34:01.387Z,9.2
2019-03-03T21:49:01.430Z,9.2
2019-03-03T21:59:01.366Z,9.3
2019-03-03T22:14:01.339Z,9.3
2019-03-03T22:19:01.291Z,9.4
2019-03-03T22:34:01.457Z,9.4
2019-03-03T22:49:01.379Z,9.4
2019-03-03T23:04:01.333Z,9.4
2019-03-03T23:19:01.416Z,9.4
2019-03-03T23:34:01.473Z,9.4
2019-03-03T23:49:01.333Z,9.4
2019-03-03T23:54:01.386Z,9.3
